Latest Coastal Weather Observations for Rottnest Island

IDW60701

Issued at 10:25 am WST Thursday 23 October 2014 (issued every 10 minutes, with the page automatically refreshed every 10 minutes)

About coastal observations | Map of coastal stations | Coastal observations for WA | Marine services | Other Formats
Station Details ID: 009193 Name: ROTTNEST ISLAND Lat: -32.01 Lon: 115.50 Height: 43.1 m
Data from the previous 72 hours. | See also: Recent months at Rottnest Island
Date/Time
WST
Temp

°C
Wind Pressure Rain
since 9am
mm
Weather Cloud Vis
km
Sea
Height
m
Swell
Dir
 
Speed
knots
Gust
knots
hPa Trend Height
m
Period
s
Dir
23/10:00am 20.4 WSW 13 17 1016.1 - 0.0 - - - - - - -
23/09:30am 19.3 SW 13 16 1015.9 - 0.0 - - - - - - -
23/09:00am 19.8 W 14 18 1015.6 - 0.2 - - - - - - -
23/08:30am 19.8 W 12 17 1015.3 - 0.2 - - - - - - -
23/08:00am 19.4 W 12 16 1015.2 - 0.2 - - - - - - -
23/07:30am 18.9 W 14 18 1015.0 - 0.2 - - - - - - -
23/07:00am 18.6 W 11 17 1014.6 - 0.2 - - - - - - -
23/06:30am 17.8 WSW 13 17 1014.3 - 0.2 - - - - - - -
23/06:00am 17.5 WSW 13 17 1013.9 - 0.2 - - - - - - -
23/05:30am 17.1 WSW 11 14 1013.4 - 0.2 - - - - - - -
23/05:00am 17.6 W 11 16 1013.3 - 0.2 - - - - - - -
23/04:30am 17.4 W 11 14 1013.0 - 0.2 - - - - - - -
23/04:00am 17.4 W 11 14 1013.0 - 0.2 - - - - - - -
23/03:30am 17.5 W 13 17 1013.1 - 0.2 - - - - - - -
23/03:00am 16.8 WNW 12 16 1013.4 - 0.2 - - - - - - -
23/02:54am 16.7 W 15 25 1013.5 - 0.2 - - - - - - -
23/02:30am 17.7 W 15 20 1013.5 - 0.2 - - - - - - -
23/02:00am 17.9 WNW 15 18 1013.6 - 0.2 - - - - - - -
23/01:30am 17.9 W 15 19 1013.5 - 0.2 - - - - - - -
23/01:00am 17.8 WNW 16 21 1013.5 - 0.2 - - - - - - -
23/12:30am 17.5 WNW 11 14 1013.4 - 0.2 - - - - - - -
23/12:00am 17.8 W 13 16 1014.1 - 0.2 - - - - - - -
 
Date/Time
WST
Temp

°C
Wind Pressure Rain
since 9am
mm
Weather Cloud Vis
km
Sea
Height
m
Swell
Dir
 
Speed
knots
Gust
knots
hPa Trend Height
m
Period
s
Dir
22/11:30pm 18.4 NW 15 19 1014.3 - 0.2 - - - - - - -
22/11:00pm 18.1 NW 15 19 1014.3 - 0.2 - - - - - - -
22/10:30pm 17.9 NW 14 18 1014.5 - 0.2 - - - - - - -
22/10:00pm 17.7 NNW 11 15 1014.2 - 0.2 - - - - - - -
22/09:30pm 17.6 NNW 15 19 1014.2 - 0.2 - - - - - - -
22/09:00pm 17.5 N 12 15 1013.6 - 0.2 Rain - - - - - -
22/08:30pm 18.9 NW 16 22 1014.1 - 0.0 - - - - - - -
22/08:00pm 18.8 NW 19 24 1014.0 - 0.0 - - - - - - -
22/07:30pm 18.6 NW 16 21 1013.7 - 0.0 - - - - - - -
22/07:00pm 18.4 WNW 13 18 1013.2 - 0.0 - - - - - - -
22/06:30pm 18.7 WNW 17 23 1013.2 - 0.0 - - - - - - -
22/06:00pm 19.1 WNW 17 22 1012.8 - 0.0 - - - - - - -
22/05:30pm 19.7 WNW 21 27 1012.8 - 0.0 - - - - - - -
22/05:00pm 20.2 WNW 23 29 1012.4 - 0.0 - - - - - - -
22/04:30pm 20.1 WNW 23 28 1012.2 - 0.0 - - - - - - -
22/04:00pm 20.8 WNW 21 28 1012.1 - 0.0 - - - - - - -
22/03:30pm 21.6 WNW 22 28 1011.9 - 0.0 - - - - - - -
22/03:00pm 21.5 WNW 23 30 1011.8 - 0.0 - - - - - - -
22/02:30pm 22.0 WNW 25 31 1011.6 - 0.0 - - - - - - -
22/02:00pm 22.7 WNW 26 33 1011.4 - 0.0 - - - - - - -
22/01:36pm 22.3 NW 23 33 1011.2 - 0.0 - - - - - - -
22/01:30pm 23.0 NW 21 27 1011.2 - 0.0 - - - - - - -
22/01:00pm 23.4 NW 18 23 1011.3 - 0.0 - - - - - - -
22/12:30pm 23.7 NW 16 20 1011.5 - 0.0 - - - - - - -
22/12:00pm 25.0 NNW 10 12 1011.6 - 0.0 - - - - - - -
22/11:30am 26.3 N 13 18 1011.9 - 0.0 - - - - - - -
22/11:00am 25.7 NE 11 15 1012.0 - 0.0 - - - - - - -
22/10:30am 24.4 NE 11 15 1012.4 - 0.0 - - - - - - -
22/10:00am 23.4 NNE 10 14 1013.0 - 0.0 - - - - - - -
22/09:30am 22.7 N 10 14 1013.7 - 0.0 - - - - - - -
22/09:00am 21.6 N 10 12 1014.2 - 0.0 - - - - - - -
22/08:30am 21.4 N 10 15 1014.3 - 0.0 - - - - - - -
22/08:00am 21.4 N 12 15 1014.4 - 0.0 - - - - - - -
22/07:30am 20.3 NE 16 22 1013.4 - 0.0 - - - - - - -
22/07:00am 19.6 ENE 16 21 1012.9 - 0.0 - - - - - - -
22/06:30am 18.8 ENE 17 25 1012.9 - 0.0 - - - - - - -
22/06:00am 18.7 E 20 30 1012.7 - 0.0 - - - - - - -
22/05:56am 18.7 ENE 19 29 1012.7 - 0.0 - - - - - - -
22/05:30am 18.8 E 20 28 1012.6 - 0.0 - - - - - - -
22/05:16am 18.9 E 16 27 1012.6 - 0.0 - - - - - - -
22/05:00am 18.6 E 12 18 1012.8 - 0.0 - - - - - - -
22/04:30am 18.5 E 12 17 1013.0 - 0.0 - - - - - - -
22/04:00am 18.2 E 12 17 1013.2 - 0.0 - - - - - - -
22/03:30am 18.2 E 13 17 1013.7 - 0.0 - - - - - - -
22/03:00am 18.5 E 11 15 1014.0 - 0.0 - - - - - - -
22/02:30am 18.5 ESE 9 11 1014.4 - 0.0 - - - - - - -
22/02:00am 18.7 ESE 7 9 1014.6 - 0.0 - - - - - - -
22/01:30am 17.9 E 7 9 1015.0 - 0.0 - - - - - - -
22/01:00am 17.8 ESE 8 9 1015.5 - 0.0 - - - - - - -
22/12:30am 17.7 ESE 9 11 1016.1 - 0.0 - - - - - - -
22/12:00am 17.1 SE 9 11 1016.4 - 0.0 - - - - - - -
 
Date/Time
WST
Temp

°C
Wind Pressure Rain
since 9am
mm
Weather Cloud Vis
km
Sea
Height
m
Swell
Dir
 
Speed
knots
Gust
knots
hPa Trend Height
m
Period
s
Dir
21/11:30pm 17.3 SSE 10 12 1016.5 - 0.0 - - - - - - -
21/11:00pm 17.4 SSE 11 13 1016.8 - 0.0 - - - - - - -
21/10:30pm 17.7 SSE 13 15 1017.3 - 0.0 - - - - - - -
21/10:00pm 17.7 SE 14 18 1017.4 - 0.0 - - - - - - -
21/09:30pm 18.1 SE 17 21 1018.0 - 0.0 - - - - - - -
21/09:00pm 18.2 SSE 14 19 1018.5 - 0.0 - - - - - - -
21/08:30pm 18.2 SSE 15 19 1019.1 - 0.0 - - - - - - -
21/08:00pm 18.0 SSE 16 19 1019.0 - 0.0 - - - - - - -
21/07:30pm 17.9 SSE 15 18 1019.0 - 0.0 - - - - - - -
21/07:00pm 17.6 S 16 18 1019.2 - 0.0 - - - - - - -
21/06:30pm 17.3 S 16 18 1019.2 - 0.0 - - - - - - -
21/06:00pm 17.6 S 15 17 1018.9 - 0.0 - - - - - - -
21/05:30pm 18.0 S 14 17 1018.8 - 0.0 - - - - - - -
21/05:00pm 18.4 S 15 17 1018.8 - 0.0 - - - - - - -
21/04:30pm 18.8 S 15 18 1019.1 - 0.0 - - - - - - -
21/04:00pm 18.7 SSW 15 17 1019.2 - 0.0 - - - - - - -
21/03:30pm 19.2 SSW 14 17 1019.5 - 0.0 - - - - - - -
21/03:00pm 18.9 SSW 14 17 1019.9 - 0.0 - - - - - - -
21/02:30pm 18.9 S 12 15 1020.1 - 0.0 - - - - - - -
21/02:00pm 19.1 S 13 15 1020.4 - 0.0 - - - - - - -
21/01:30pm 18.5 S 13 15 1020.6 - 0.0 - - - - - - -
21/01:00pm 18.6 S 12 14 1021.0 - 0.0 - - - - - - -
21/12:30pm 18.8 S 11 14 1021.4 - 0.0 - - - - - - -
21/12:00pm 18.7 S 10 12 1021.4 - 0.0 - - - - - - -
21/11:30am 18.8 S 10 12 1021.6 - 0.0 - - - - - - -
21/11:00am 17.9 S 10 13 1021.8 - 0.0 - - - - - - -
21/10:30am 18.2 SSE 11 14 1022.0 - 0.0 - - - - - - -
21/10:00am 17.5 SSE 11 14 1022.2 - 0.0 - - - - - - -
21/09:30am 17.3 SSE 11 15 1022.5 - 0.0 - - - - - - -
21/09:00am 16.7 SE 11 14 1022.4 - 0.0 - - - - - - -
21/08:30am 16.6 SE 9 13 1022.3 - 0.0 - - - - - - -
21/08:00am 16.5 SE 9 14 1022.0 - 0.0 - - - - - - -
21/07:30am 16.0 ESE 8 13 1021.9 - 0.0 - - - - - - -
21/07:00am 15.6 ESE 8 11 1021.6 - 0.0 - - - - - - -
21/06:30am 15.1 SE 8 11 1021.4 - 0.0 - - - - - - -
21/06:00am 14.5 ESE 7 9 1021.3 - 0.0 - - - - - - -
21/05:30am 14.4 ESE 7 8 1021.0 - 0.0 - - - - - - -
21/05:00am 15.0 E 7 8 1020.8 - 0.0 - - - - - - -
21/04:30am 15.3 S 3 5 1020.5 - 0.0 - - - - - - -
21/04:00am 15.2 S 4 5 1020.2 - 0.0 - - - - - - -
21/03:30am 15.2 CALM 0 0 1020.1 - 0.0 - - - - - - -
21/03:00am 15.6 S 2 4 1019.8 - 0.0 - - - - - - -
21/02:30am 15.5 S 3 5 1019.9 - 0.0 - - - - - - -
21/02:00am 15.0 S 5 7 1019.8 - 0.0 - - - - - - -
21/01:30am 15.6 SSW 5 9 1019.8 - 0.0 - - - - - - -
21/01:00am 15.0 S 7 9 1019.9 - 0.0 - - - - - - -
21/12:30am 14.7 S 7 9 1020.2 - 0.0 - - - - - - -
21/12:00am 15.0 S 7 9 1020.2 - 0.0 - - - - - - -
 
Date/Time
WST
Temp

°C
Wind Pressure Rain
since 9am
mm
Weather Cloud Vis
km
Sea
Height
m
Swell
Dir
 
Speed
knots
Gust
knots
hPa Trend Height
m
Period
s
Dir
20/11:30pm 14.9 S 9 11 1020.2 - 0.0 - - - - - - -
20/11:00pm 15.4 S 9 11 1020.4 - 0.0 - - - - - - -
20/10:30pm 15.5 S 9 12 1020.5 - 0.0 - - - - - - -
20/10:00pm 16.1 S 12 15 1020.3 - 0.0 - - - - - - -
20/09:30pm 15.8 S 9 12 1020.6 - 0.0 - - - - - - -
20/09:00pm 16.2 S 11 15 1020.7 - 0.0 - - - - - - -
20/08:30pm 16.3 S 12 15 1020.5 - 0.0 - - - - - - -
20/08:00pm 16.4 S 12 16 1020.4 - 0.0 - - - - - - -
20/07:30pm 16.6 S 13 18 1020.3 - 0.0 - - - - - - -
20/07:00pm 16.7 S 15 19 1019.9 - 0.0 - - - - - - -
20/06:30pm 16.8 S 15 18 1019.9 - 0.0 - - - - - - -
20/06:00pm 16.8 SSW 15 19 1019.5 - 0.0 - - - - - - -
20/05:30pm 18.1 SSW 12 16 1019.3 - 0.0 - - - - - - -
20/05:00pm 18.3 SSW 13 16 1019.2 - 0.0 - - - - - - -
20/04:30pm 18.7 SW 15 19 1019.1 - 0.0 - - - - - - -
20/04:00pm 18.9 SW 15 20 1018.8 - 0.0 - - - - - - -
20/03:30pm 19.3 S 11 13 1018.7 - 0.0 - - - - - - -
20/03:00pm 19.1 SW 17 21 1018.7 - 0.0 - - - - - - -
20/02:30pm 20.1 SW 13 17 1018.5 - 0.0 - - - - - - -
20/02:00pm 19.9 SW 15 18 1018.4 - 0.0 - - - - - - -
20/01:30pm 19.0 SW 14 16 1018.6 - 0.0 - - - - - - -
20/01:00pm 18.6 SSW 12 16 1018.6 - 0.0 - - - - - - -
20/12:30pm 17.9 SSW 14 17 1018.4 - 0.0 - - - - - - -
20/12:00pm 18.1 SSW 14 17 1018.3 - 0.0 - - - - - - -
20/11:30am 18.6 S 14 17 1018.1 - 0.0 - - - - - - -
20/11:00am 18.7 S 15 18 1018.2 - 0.0 - - - - - - -
20/10:30am 18.1 S 14 17 1018.1 - 0.0 - - - - - - -

Other Formats:

Comma delimited format used in spreadsheet applications
http://www.bom.gov.au/fwo/IDW60701/IDW60701.94602.axf

JavaScript Object Notation format (JSON) in row-major order
http://www.bom.gov.au/fwo/IDW60701/IDW60701.94602.json